sensor_id;sensor_type;location;lat;lon;timestamp;temperature;humidity
79315;DHT22;68777;44.804;0.552;2023-04-05T00:01:20;9.28;54.99
79315;DHT22;68777;44.804;0.552;2023-04-05T00:03:45;9.24;55.22
79315;DHT22;68777;44.804;0.552;2023-04-05T00:06:11;9.21;55.48
79315;DHT22;68777;44.804;0.552;2023-04-05T00:08:37;9.16;55.43
79315;DHT22;68777;44.804;0.552;2023-04-05T00:11:02;9.13;55.72
79315;DHT22;68777;44.804;0.552;2023-04-05T00:13:28;9.16;55.50
79315;DHT22;68777;44.804;0.552;2023-04-05T00:15:53;9.01;55.80
79315;DHT22;68777;44.804;0.552;2023-04-05T00:18:22;9.03;55.97
79315;DHT22;68777;44.804;0.552;2023-04-05T00:20:51;8.99;56.12
79315;DHT22;68777;44.804;0.552;2023-04-05T00:23:16;9.10;56.15
79315;DHT22;68777;44.804;0.552;2023-04-05T00:25:42;9.09;56.30
79315;DHT22;68777;44.804;0.552;2023-04-05T00:28:08;9.09;56.44
79315;DHT22;68777;44.804;0.552;2023-04-05T00:30:34;9.09;56.44
79315;DHT22;68777;44.804;0.552;2023-04-05T00:33:00;9.11;56.39
79315;DHT22;68777;44.804;0.552;2023-04-05T00:35:26;9.11;56.92
79315;DHT22;68777;44.804;0.552;2023-04-05T00:37:52;9.11;57.21
79315;DHT22;68777;44.804;0.552;2023-04-05T00:40:17;9.07;58.04
79315;DHT22;68777;44.804;0.552;2023-04-05T00:42:43;9.06;58.05
79315;DHT22;68777;44.804;0.552;2023-04-05T00:45:08;8.97;57.97
79315;DHT22;68777;44.804;0.552;2023-04-05T00:47:35;8.94;58.32
79315;DHT22;68777;44.804;0.552;2023-04-05T00:50:00;8.97;58.59
79315;DHT22;68777;44.804;0.552;2023-04-05T00:52:27;8.90;58.67
79315;DHT22;68777;44.804;0.552;2023-04-05T00:54:52;8.87;58.89
79315;DHT22;68777;44.804;0.552;2023-04-05T00:57:19;8.83;58.91
79315;DHT22;68777;44.804;0.552;2023-04-05T00:59:44;8.80;59.29
79315;DHT22;68777;44.804;0.552;2023-04-05T01:02:22;8.75;59.76
79315;DHT22;68777;44.804;0.552;2023-04-05T01:04:54;8.65;59.50
79315;DHT22;68777;44.804;0.552;2023-04-05T01:07:30;8.66;59.10
79315;DHT22;68777;44.804;0.552;2023-04-05T01:10:01;8.62;58.81
79315;DHT22;68777;44.804;0.552;2023-04-05T01:12:31;8.63;58.39
79315;DHT22;68777;44.804;0.552;2023-04-05T01:14:58;8.59;58.59
79315;DHT22;68777;44.804;0.552;2023-04-05T01:17:26;8.55;58.70
79315;DHT22;68777;44.804;0.552;2023-04-05T01:20:02;8.52;58.47
79315;DHT22;68777;44.804;0.552;2023-04-05T01:24:04;8.49;57.77
79315;DHT22;68777;44.804;0.552;2023-04-05T01:31:50;8.55;57.49
79315;DHT22;68777;44.804;0.552;2023-04-05T01:37:14;8.31;57.35
79315;DHT22;68777;44.804;0.552;2023-04-05T01:39:42;8.24;58.59
79315;DHT22;68777;44.804;0.552;2023-04-05T01:42:09;8.22;59.67
79315;DHT22;68777;44.804;0.552;2023-04-05T01:44:34;8.18;59.36
79315;DHT22;68777;44.804;0.552;2023-04-05T01:46:59;8.18;59.80
79315;DHT22;68777;44.804;0.552;2023-04-05T01:49:25;8.15;60.19
79315;DHT22;68777;44.804;0.552;2023-04-05T01:51:50;8.21;60.27
79315;DHT22;68777;44.804;0.552;2023-04-05T01:54:15;8.22;60.31
79315;DHT22;68777;44.804;0.552;2023-04-05T01:56:41;8.18;60.59
79315;DHT22;68777;44.804;0.552;2023-04-05T01:59:06;8.02;60.50
79315;DHT22;68777;44.804;0.552;2023-04-05T02:01:31;7.91;60.43
79315;DHT22;68777;44.804;0.552;2023-04-05T02:03:57;7.80;60.89
79315;DHT22;68777;44.804;0.552;2023-04-05T02:06:22;7.75;60.67
79315;DHT22;68777;44.804;0.552;2023-04-05T02:08:48;7.77;60.77
79315;DHT22;68777;44.804;0.552;2023-04-05T02:11:13;7.78;60.63
79315;DHT22;68777;44.804;0.552;2023-04-05T02:13:39;7.73;61.14
79315;DHT22;68777;44.804;0.552;2023-04-05T02:16:04;7.71;60.95
79315;DHT22;68777;44.804;0.552;2023-04-05T02:18:30;7.75;61.19
79315;DHT22;68777;44.804;0.552;2023-04-05T02:21:06;7.69;61.59
79315;DHT22;68777;44.804;0.552;2023-04-05T02:23:33;7.67;61.05
79315;DHT22;68777;44.804;0.552;2023-04-05T02:25:58;7.67;61.34
79315;DHT22;68777;44.804;0.552;2023-04-05T02:28:24;7.74;61.47
79315;DHT22;68777;44.804;0.552;2023-04-05T02:30:50;7.78;61.63
79315;DHT22;68777;44.804;0.552;2023-04-05T02:33:15;7.77;62.14
79315;DHT22;68777;44.804;0.552;2023-04-05T02:35:41;7.73;62.65
79315;DHT22;68777;44.804;0.552;2023-04-05T02:38:06;7.73;62.93
79315;DHT22;68777;44.804;0.552;2023-04-05T02:40:33;7.66;62.26
79315;DHT22;68777;44.804;0.552;2023-04-05T02:42:58;7.69;62.03
79315;DHT22;68777;44.804;0.552;2023-04-05T02:45:24;7.69;62.54
79315;DHT22;68777;44.804;0.552;2023-04-05T02:47:52;7.60;62.51
79315;DHT22;68777;44.804;0.552;2023-04-05T02:50:17;7.53;62.43
79315;DHT22;68777;44.804;0.552;2023-04-05T02:52:48;7.37;62.83
79315;DHT22;68777;44.804;0.552;2023-04-05T02:55:14;7.32;62.66
79315;DHT22;68777;44.804;0.552;2023-04-05T02:57:41;7.23;63.29
79315;DHT22;68777;44.804;0.552;2023-04-05T03:00:07;7.27;63.11
79315;DHT22;68777;44.804;0.552;2023-04-05T03:02:32;7.36;63.25
79315;DHT22;68777;44.804;0.552;2023-04-05T03:04:58;7.30;64.56
79315;DHT22;68777;44.804;0.552;2023-04-05T03:07:26;7.36;63.88
79315;DHT22;68777;44.804;0.552;2023-04-05T03:09:52;7.33;63.87
79315;DHT22;68777;44.804;0.552;2023-04-05T03:12:18;7.22;64.20
79315;DHT22;68777;44.804;0.552;2023-04-05T03:14:44;7.18;64.23
79315;DHT22;68777;44.804;0.552;2023-04-05T03:17:11;7.13;63.91
79315;DHT22;68777;44.804;0.552;2023-04-05T03:19:36;7.09;64.49
79315;DHT22;68777;44.804;0.552;2023-04-05T03:22:02;6.89;64.40
79315;DHT22;68777;44.804;0.552;2023-04-05T03:24:28;6.89;64.38
79315;DHT22;68777;44.804;0.552;2023-04-05T03:26:54;6.79;64.95
79315;DHT22;68777;44.804;0.552;2023-04-05T03:29:20;6.75;64.87
79315;DHT22;68777;44.804;0.552;2023-04-05T03:31:45;6.68;65.25
79315;DHT22;68777;44.804;0.552;2023-04-05T03:34:11;6.67;65.42
79315;DHT22;68777;44.804;0.552;2023-04-05T03:36:36;6.67;65.13
79315;DHT22;68777;44.804;0.552;2023-04-05T03:39:11;6.74;65.44
79315;DHT22;68777;44.804;0.552;2023-04-05T03:41:40;6.75;64.49
79315;DHT22;68777;44.804;0.552;2023-04-05T03:44:07;6.81;65.48
79315;DHT22;68777;44.804;0.552;2023-04-05T03:46:32;6.78;65.58
79315;DHT22;68777;44.804;0.552;2023-04-05T03:48:58;6.78;65.57
79315;DHT22;68777;44.804;0.552;2023-04-05T03:51:24;6.75;66.34
79315;DHT22;68777;44.804;0.552;2023-04-05T03:53:50;6.71;65.81
79315;DHT22;68777;44.804;0.552;2023-04-05T03:56:16;6.67;66.13
79315;DHT22;68777;44.804;0.552;2023-04-05T03:58:41;6.59;66.66
79315;DHT22;68777;44.804;0.552;2023-04-05T04:01:07;6.54;67.44
79315;DHT22;68777;44.804;0.552;2023-04-05T04:03:32;6.54;66.56
79315;DHT22;68777;44.804;0.552;2023-04-05T04:05:58;6.52;67.17
79315;DHT22;68777;44.804;0.552;2023-04-05T04:08:23;6.47;67.55
79315;DHT22;68777;44.804;0.552;2023-04-05T04:10:50;6.45;67.69
79315;DHT22;68777;44.804;0.552;2023-04-05T04:13:15;6.48;68.44
79315;DHT22;68777;44.804;0.552;2023-04-05T04:15:44;6.42;67.64
79315;DHT22;68777;44.804;0.552;2023-04-05T04:18:09;6.42;67.36
79315;DHT22;68777;44.804;0.552;2023-04-05T04:20:36;6.37;67.23
79315;DHT22;68777;44.804;0.552;2023-04-05T04:23:04;6.30;66.66
79315;DHT22;68777;44.804;0.552;2023-04-05T04:25:31;6.38;67.01
79315;DHT22;68777;44.804;0.552;2023-04-05T04:27:57;6.20;66.64
79315;DHT22;68777;44.804;0.552;2023-04-05T04:30:22;6.03;67.57
79315;DHT22;68777;44.804;0.552;2023-04-05T04:32:49;5.93;67.50
79315;DHT22;68777;44.804;0.552;2023-04-05T04:35:23;6.02;67.32
79315;DHT22;68777;44.804;0.552;2023-04-05T04:38:03;6.03;67.64
79315;DHT22;68777;44.804;0.552;2023-04-05T04:40:30;6.06;67.71
79315;DHT22;68777;44.804;0.552;2023-04-05T04:43:12;6.07;68.13
79315;DHT22;68777;44.804;0.552;2023-04-05T04:45:50;6.09;66.99
79315;DHT22;68777;44.804;0.552;2023-04-05T04:48:19;6.17;67.13
79315;DHT22;68777;44.804;0.552;2023-04-05T04:50:45;6.10;67.60
79315;DHT22;68777;44.804;0.552;2023-04-05T04:53:11;6.00;66.81
79315;DHT22;68777;44.804;0.552;2023-04-05T04:55:38;6.05;66.69
79315;DHT22;68777;44.804;0.552;2023-04-05T04:58:06;5.95;68.26
79315;DHT22;68777;44.804;0.552;2023-04-05T05:00:36;5.96;67.34
79315;DHT22;68777;44.804;0.552;2023-04-05T05:03:02;5.92;67.41
79315;DHT22;68777;44.804;0.552;2023-04-05T05:05:28;5.96;68.21
79315;DHT22;68777;44.804;0.552;2023-04-05T05:07:53;5.92;67.09
79315;DHT22;68777;44.804;0.552;2023-04-05T05:10:19;5.90;66.95
79315;DHT22;68777;44.804;0.552;2023-04-05T05:12:45;5.96;66.82
79315;DHT22;68777;44.804;0.552;2023-04-05T05:15:11;5.95;67.51
79315;DHT22;68777;44.804;0.552;2023-04-05T05:17:37;5.83;68.14
79315;DHT22;68777;44.804;0.552;2023-04-05T05:20:04;5.76;68.29
79315;DHT22;68777;44.804;0.552;2023-04-05T05:22:37;5.77;67.31
79315;DHT22;68777;44.804;0.552;2023-04-05T05:25:03;5.79;67.84
79315;DHT22;68777;44.804;0.552;2023-04-05T05:27:29;5.79;68.23
79315;DHT22;68777;44.804;0.552;2023-04-05T05:29:55;5.79;68.38
79315;DHT22;68777;44.804;0.552;2023-04-05T05:32:20;5.77;68.72
79315;DHT22;68777;44.804;0.552;2023-04-05T05:34:47;5.79;68.48
79315;DHT22;68777;44.804;0.552;2023-04-05T05:37:13;5.75;69.27
79315;DHT22;68777;44.804;0.552;2023-04-05T05:39:38;5.75;68.28
79315;DHT22;68777;44.804;0.552;2023-04-05T05:42:04;5.80;68.32
79315;DHT22;68777;44.804;0.552;2023-04-05T05:44:29;5.83;68.65
79315;DHT22;68777;44.804;0.552;2023-04-05T05:46:55;5.75;68.19
79315;DHT22;68777;44.804;0.552;2023-04-05T05:49:21;5.59;68.57
79315;DHT22;68777;44.804;0.552;2023-04-05T05:51:48;5.46;68.67
79315;DHT22;68777;44.804;0.552;2023-04-05T05:54:13;5.55;69.30
79315;DHT22;68777;44.804;0.552;2023-04-05T05:56:39;5.60;68.44
79315;DHT22;68777;44.804;0.552;2023-04-05T05:59:04;5.65;68.66
79315;DHT22;68777;44.804;0.552;2023-04-05T06:01:30;5.72;69.10
79315;DHT22;68777;44.804;0.552;2023-04-05T06:03:58;5.77;68.52
79315;DHT22;68777;44.804;0.552;2023-04-05T06:06:23;5.86;69.72
79315;DHT22;68777;44.804;0.552;2023-04-05T06:08:49;5.86;69.75
79315;DHT22;68777;44.804;0.552;2023-04-05T06:11:16;5.87;69.46
79315;DHT22;68777;44.804;0.552;2023-04-05T06:13:42;5.92;69.11
79315;DHT22;68777;44.804;0.552;2023-04-05T06:16:07;5.95;69.45
79315;DHT22;68777;44.804;0.552;2023-04-05T06:18:33;5.96;69.09
79315;DHT22;68777;44.804;0.552;2023-04-05T06:20:58;5.97;68.87
79315;DHT22;68777;44.804;0.552;2023-04-05T06:23:23;6.06;68.75
79315;DHT22;68777;44.804;0.552;2023-04-05T06:25:49;6.10;69.16
79315;DHT22;68777;44.804;0.552;2023-04-05T06:28:14;6.26;68.73
79315;DHT22;68777;44.804;0.552;2023-04-05T06:30:39;6.36;69.13
79315;DHT22;68777;44.804;0.552;2023-04-05T06:33:05;6.45;69.78
79315;DHT22;68777;44.804;0.552;2023-04-05T06:35:30;6.58;69.59
79315;DHT22;68777;44.804;0.552;2023-04-05T06:37:56;6.63;69.51
79315;DHT22;68777;44.804;0.552;2023-04-05T06:40:21;6.72;69.23
79315;DHT22;68777;44.804;0.552;2023-04-05T06:42:47;6.81;68.93
79315;DHT22;68777;44.804;0.552;2023-04-05T06:45:12;6.89;69.21
79315;DHT22;68777;44.804;0.552;2023-04-05T06:47:39;6.98;68.37
79315;DHT22;68777;44.804;0.552;2023-04-05T06:50:07;7.15;67.85
79315;DHT22;68777;44.804;0.552;2023-04-05T06:52:33;7.37;66.84
79315;DHT22;68777;44.804;0.552;2023-04-05T06:54:59;7.59;66.82
79315;DHT22;68777;44.804;0.552;2023-04-05T06:57:24;7.78;66.34
79315;DHT22;68777;44.804;0.552;2023-04-05T06:59:51;7.90;65.28
79315;DHT22;68777;44.804;0.552;2023-04-05T07:02:17;7.99;65.01
79315;DHT22;68777;44.804;0.552;2023-04-05T07:04:42;8.18;64.72
79315;DHT22;68777;44.804;0.552;2023-04-05T07:07:08;8.18;65.01
79315;DHT22;68777;44.804;0.552;2023-04-05T07:09:34;8.39;64.08
79315;DHT22;68777;44.804;0.552;2023-04-05T07:12:02;8.35;64.31
79315;DHT22;68777;44.804;0.552;2023-04-05T07:14:29;8.42;63.99
79315;DHT22;68777;44.804;0.552;2023-04-05T07:16:55;8.56;63.41
79315;DHT22;68777;44.804;0.552;2023-04-05T07:19:20;8.76;62.43
79315;DHT22;68777;44.804;0.552;2023-04-05T07:21:45;8.84;62.38
79315;DHT22;68777;44.804;0.552;2023-04-05T07:24:11;8.99;61.15
79315;DHT22;68777;44.804;0.552;2023-04-05T07:26:36;9.17;60.85
79315;DHT22;68777;44.804;0.552;2023-04-05T07:29:03;9.28;60.22
79315;DHT22;68777;44.804;0.552;2023-04-05T07:31:29;9.42;59.91
79315;DHT22;68777;44.804;0.552;2023-04-05T07:33:55;9.61;59.36
79315;DHT22;68777;44.804;0.552;2023-04-05T07:36:22;9.78;58.38
79315;DHT22;68777;44.804;0.552;2023-04-05T07:38:48;9.77;56.92
79315;DHT22;68777;44.804;0.552;2023-04-05T07:41:13;9.86;57.44
79315;DHT22;68777;44.804;0.552;2023-04-05T07:43:40;9.93;56.63
79315;DHT22;68777;44.804;0.552;2023-04-05T07:46:06;10.10;56.62
79315;DHT22;68777;44.804;0.552;2023-04-05T07:48:32;10.12;54.79
79315;DHT22;68777;44.804;0.552;2023-04-05T07:51:08;10.26;55.96
79315;DHT22;68777;44.804;0.552;2023-04-05T07:53:35;10.39;55.79
79315;DHT22;68777;44.804;0.552;2023-04-05T07:56:04;10.26;56.06
79315;DHT22;68777;44.804;0.552;2023-04-05T07:58:31;10.33;56.46
79315;DHT22;68777;44.804;0.552;2023-04-05T08:01:03;10.42;54.55
79315;DHT22;68777;44.804;0.552;2023-04-05T08:03:29;10.60;53.81
79315;DHT22;68777;44.804;0.552;2023-04-05T08:05:56;10.77;54.88
79315;DHT22;68777;44.804;0.552;2023-04-05T08:08:23;10.73;54.29
79315;DHT22;68777;44.804;0.552;2023-04-05T08:10:49;10.70;51.96
79315;DHT22;68777;44.804;0.552;2023-04-05T08:13:14;10.93;52.01
79315;DHT22;68777;44.804;0.552;2023-04-05T08:15:40;11.08;51.41
79315;DHT22;68777;44.804;0.552;2023-04-05T08:18:06;11.14;50.69
79315;DHT22;68777;44.804;0.552;2023-04-05T08:20:31;11.08;50.57
79315;DHT22;68777;44.804;0.552;2023-04-05T08:22:57;11.21;51.31
79315;DHT22;68777;44.804;0.552;2023-04-05T08:25:23;11.21;50.54
79315;DHT22;68777;44.804;0.552;2023-04-05T08:27:48;11.45;50.44
79315;DHT22;68777;44.804;0.552;2023-04-05T08:30:14;11.58;49.24
79315;DHT22;68777;44.804;0.552;2023-04-05T08:32:40;11.72;49.82
79315;DHT22;68777;44.804;0.552;2023-04-05T08:35:06;11.82;47.95
79315;DHT22;68777;44.804;0.552;2023-04-05T08:37:34;11.89;49.16
79315;DHT22;68777;44.804;0.552;2023-04-05T08:40:00;11.99;49.83
79315;DHT22;68777;44.804;0.552;2023-04-05T08:42:30;11.97;47.10
79315;DHT22;68777;44.804;0.552;2023-04-05T08:44:58;12.02;48.21
79315;DHT22;68777;44.804;0.552;2023-04-05T08:47:24;12.10;47.85
79315;DHT22;68777;44.804;0.552;2023-04-05T08:49:51;12.12;44.21
79315;DHT22;68777;44.804;0.552;2023-04-05T08:52:17;12.27;44.75
79315;DHT22;68777;44.804;0.552;2023-04-05T08:54:43;12.16;44.03
79315;DHT22;68777;44.804;0.552;2023-04-05T08:57:09;12.30;44.44
79315;DHT22;68777;44.804;0.552;2023-04-05T08:59:38;12.44;43.76
79315;DHT22;68777;44.804;0.552;2023-04-05T09:02:13;12.48;42.24
79315;DHT22;68777;44.804;0.552;2023-04-05T09:04:42;12.73;42.99
79315;DHT22;68777;44.804;0.552;2023-04-05T09:07:12;12.78;38.46
79315;DHT22;68777;44.804;0.552;2023-04-05T09:09:38;12.73;39.35
79315;DHT22;68777;44.804;0.552;2023-04-05T09:12:07;12.78;39.32
79315;DHT22;68777;44.804;0.552;2023-04-05T09:14:37;12.96;40.20
79315;DHT22;68777;44.804;0.552;2023-04-05T09:17:03;13.05;39.76
79315;DHT22;68777;44.804;0.552;2023-04-05T09:19:29;12.92;39.63
79315;DHT22;68777;44.804;0.552;2023-04-05T09:22:07;13.09;40.39
79315;DHT22;68777;44.804;0.552;2023-04-05T09:24:37;13.06;39.95
79315;DHT22;68777;44.804;0.552;2023-04-05T09:27:13;13.27;40.98
79315;DHT22;68777;44.804;0.552;2023-04-05T09:29:40;13.39;37.28
79315;DHT22;68777;44.804;0.552;2023-04-05T09:32:07;13.46;37.05
79315;DHT22;68777;44.804;0.552;2023-04-05T09:34:34;13.67;38.50
79315;DHT22;68777;44.804;0.552;2023-04-05T09:37:14;13.73;38.09
79315;DHT22;68777;44.804;0.552;2023-04-05T09:39:40;13.47;36.61
79315;DHT22;68777;44.804;0.552;2023-04-05T09:42:10;13.63;37.22
79315;DHT22;68777;44.804;0.552;2023-04-05T09:44:59;13.81;36.12
79315;DHT22;68777;44.804;0.552;2023-04-05T09:47:28;13.79;36.12
79315;DHT22;68777;44.804;0.552;2023-04-05T09:50:02;13.80;36.57
79315;DHT22;68777;44.804;0.552;2023-04-05T09:52:31;13.84;36.11
79315;DHT22;68777;44.804;0.552;2023-04-05T09:55:03;13.88;36.33
79315;DHT22;68777;44.804;0.552;2023-04-05T09:57:34;14.20;35.49
79315;DHT22;68777;44.804;0.552;2023-04-05T10:00:00;13.94;34.22
79315;DHT22;68777;44.804;0.552;2023-04-05T10:02:35;13.91;35.18
79315;DHT22;68777;44.804;0.552;2023-04-05T10:05:10;14.22;33.85
79315;DHT22;68777;44.804;0.552;2023-04-05T10:07:43;14.28;34.04
79315;DHT22;68777;44.804;0.552;2023-04-05T10:10:10;14.51;35.63
79315;DHT22;68777;44.804;0.552;2023-04-05T10:12:38;14.59;34.83
79315;DHT22;68777;44.804;0.552;2023-04-05T10:15:04;14.64;33.80
79315;DHT22;68777;44.804;0.552;2023-04-05T10:17:45;14.61;33.07
79315;DHT22;68777;44.804;0.552;2023-04-05T10:28:32;14.64;35.92
79315;DHT22;68777;44.804;0.552;2023-04-05T10:33:43;14.92;34.91
79315;DHT22;68777;44.804;0.552;2023-04-05T10:41:11;15.16;33.81
79315;DHT22;68777;44.804;0.552;2023-04-05T10:43:38;15.16;31.31
79315;DHT22;68777;44.804;0.552;2023-04-05T10:46:06;15.18;32.73
79315;DHT22;68777;44.804;0.552;2023-04-05T10:51:23;14.88;30.19
79315;DHT22;68777;44.804;0.552;2023-04-05T10:53:49;14.82;29.52
79315;DHT22;68777;44.804;0.552;2023-04-05T10:56:15;15.09;30.28
79315;DHT22;68777;44.804;0.552;2023-04-05T10:58:42;14.96;30.79
79315;DHT22;68777;44.804;0.552;2023-04-05T11:01:08;15.02;28.82
79315;DHT22;68777;44.804;0.552;2023-04-05T11:09:08;15.36;30.75
79315;DHT22;68777;44.804;0.552;2023-04-05T11:11:38;15.39;31.33
79315;DHT22;68777;44.804;0.552;2023-04-05T11:14:36;15.65;29.81
79315;DHT22;68777;44.804;0.552;2023-04-05T11:17:03;15.44;27.54
79315;DHT22;68777;44.804;0.552;2023-04-05T11:20:02;15.71;27.94
79315;DHT22;68777;44.804;0.552;2023-04-05T11:22:28;15.81;28.63
79315;DHT22;68777;44.804;0.552;2023-04-05T11:24:55;15.85;29.07
79315;DHT22;68777;44.804;0.552;2023-04-05T11:29:54;16.00;24.94
79315;DHT22;68777;44.804;0.552;2023-04-05T11:32:20;15.80;25.56
79315;DHT22;68777;44.804;0.552;2023-04-05T11:35:03;16.09;26.75
79315;DHT22;68777;44.804;0.552;2023-04-05T11:37:54;15.95;26.56
79315;DHT22;68777;44.804;0.552;2023-04-05T11:40:30;15.77;27.22
79315;DHT22;68777;44.804;0.552;2023-04-05T11:45:25;16.38;25.68
79315;DHT22;68777;44.804;0.552;2023-04-05T11:47:51;16.48;26.65
79315;DHT22;68777;44.804;0.552;2023-04-05T11:50:16;16.53;23.71
79315;DHT22;68777;44.804;0.552;2023-04-05T11:52:42;16.55;26.79
79315;DHT22;68777;44.804;0.552;2023-04-05T11:55:07;16.60;23.60
79315;DHT22;68777;44.804;0.552;2023-04-05T11:57:34;16.65;27.20
79315;DHT22;68777;44.804;0.552;2023-04-05T12:00:00;16.69;29.50
79315;DHT22;68777;44.804;0.552;2023-04-05T12:02:26;16.77;28.15
79315;DHT22;68777;44.804;0.552;2023-04-05T12:04:55;16.80;30.52
79315;DHT22;68777;44.804;0.552;2023-04-05T12:07:24;16.87;28.85
79315;DHT22;68777;44.804;0.552;2023-04-05T12:10:06;16.93;28.66
79315;DHT22;68777;44.804;0.552;2023-04-05T12:12:42;16.96;27.58
79315;DHT22;68777;44.804;0.552;2023-04-05T12:15:10;17.07;27.49
79315;DHT22;68777;44.804;0.552;2023-04-05T12:20:03;17.40;28.64
79315;DHT22;68777;44.804;0.552;2023-04-05T12:22:28;17.19;24.74
79315;DHT22;68777;44.804;0.552;2023-04-05T12:24:54;17.10;24.50
79315;DHT22;68777;44.804;0.552;2023-04-05T12:27:20;17.17;24.70
79315;DHT22;68777;44.804;0.552;2023-04-05T12:30:07;17.14;25.14
79315;DHT22;68777;44.804;0.552;2023-04-05T12:32:40;17.34;26.11
79315;DHT22;68777;44.804;0.552;2023-04-05T12:35:14;17.44;24.50
79315;DHT22;68777;44.804;0.552;2023-04-05T12:37:39;17.38;25.10
79315;DHT22;68777;44.804;0.552;2023-04-05T12:40:06;17.50;26.06
79315;DHT22;68777;44.804;0.552;2023-04-05T12:42:35;17.64;26.68
79315;DHT22;68777;44.804;0.552;2023-04-05T12:45:06;17.72;30.67
79315;DHT22;68777;44.804;0.552;2023-04-05T12:47:34;17.61;26.72
79315;DHT22;68777;44.804;0.552;2023-04-05T12:50:13;17.68;24.29
79315;DHT22;68777;44.804;0.552;2023-04-05T12:52:51;17.68;22.92
79315;DHT22;68777;44.804;0.552;2023-04-05T12:55:16;17.89;24.14
79315;DHT22;68777;44.804;0.552;2023-04-05T12:57:42;17.93;23.81
79315;DHT22;68777;44.804;0.552;2023-04-05T13:00:07;17.89;25.53
79315;DHT22;68777;44.804;0.552;2023-04-05T13:02:35;18.05;26.15
79315;DHT22;68777;44.804;0.552;2023-04-05T13:05:00;17.91;23.11
79315;DHT22;68777;44.804;0.552;2023-04-05T13:07:25;18.15;24.07
79315;DHT22;68777;44.804;0.552;2023-04-05T13:09:51;18.23;23.59
79315;DHT22;68777;44.804;0.552;2023-04-05T13:12:16;17.91;23.82
79315;DHT22;68777;44.804;0.552;2023-04-05T13:14:41;17.91;24.03
79315;DHT22;68777;44.804;0.552;2023-04-05T13:17:07;17.71;23.71
79315;DHT22;68777;44.804;0.552;2023-04-05T13:19:32;17.61;24.23
79315;DHT22;68777;44.804;0.552;2023-04-05T13:21:57;17.98;23.93
79315;DHT22;68777;44.804;0.552;2023-04-05T13:24:23;18.06;23.57
79315;DHT22;68777;44.804;0.552;2023-04-05T13:26:48;18.28;24.51
79315;DHT22;68777;44.804;0.552;2023-04-05T13:29:14;18.55;23.70
79315;DHT22;68777;44.804;0.552;2023-04-05T13:31:39;18.36;23.89
79315;DHT22;68777;44.804;0.552;2023-04-05T13:34:05;18.63;25.09
79315;DHT22;68777;44.804;0.552;2023-04-05T13:36:30;18.88;25.30
79315;DHT22;68777;44.804;0.552;2023-04-05T13:38:56;18.77;22.45
79315;DHT22;68777;44.804;0.552;2023-04-05T13:41:21;18.49;21.25
79315;DHT22;68777;44.804;0.552;2023-04-05T13:43:46;18.40;21.96
79315;DHT22;68777;44.804;0.552;2023-04-05T13:46:12;18.71;23.73
79315;DHT22;68777;44.804;0.552;2023-04-05T13:48:37;19.01;24.96
79315;DHT22;68777;44.804;0.552;2023-04-05T13:51:03;18.84;23.81
79315;DHT22;68777;44.804;0.552;2023-04-05T13:53:28;18.86;24.56
79315;DHT22;68777;44.804;0.552;2023-04-05T13:55:53;18.70;22.78
79315;DHT22;68777;44.804;0.552;2023-04-05T13:58:19;18.87;22.42
79315;DHT22;68777;44.804;0.552;2023-04-05T14:00:44;18.88;22.57
79315;DHT22;68777;44.804;0.552;2023-04-05T14:03:10;19.06;22.81
79315;DHT22;68777;44.804;0.552;2023-04-05T14:05:35;19.31;23.56
79315;DHT22;68777;44.804;0.552;2023-04-05T14:08:00;18.97;20.55
79315;DHT22;68777;44.804;0.552;2023-04-05T14:10:26;18.98;22.56
79315;DHT22;68777;44.804;0.552;2023-04-05T14:12:51;19.18;22.44
79315;DHT22;68777;44.804;0.552;2023-04-05T14:15:16;19.28;22.96
79315;DHT22;68777;44.804;0.552;2023-04-05T14:17:42;19.27;23.91
79315;DHT22;68777;44.804;0.552;2023-04-05T14:20:07;19.18;22.46
79315;DHT22;68777;44.804;0.552;2023-04-05T14:22:33;19.18;24.53
79315;DHT22;68777;44.804;0.552;2023-04-05T14:24:58;19.61;25.98
79315;DHT22;68777;44.804;0.552;2023-04-05T14:27:24;19.62;23.81
79315;DHT22;68777;44.804;0.552;2023-04-05T14:29:52;19.57;23.60
79315;DHT22;68777;44.804;0.552;2023-04-05T14:32:21;19.47;20.25
79315;DHT22;68777;44.804;0.552;2023-04-05T14:34:46;19.21;21.19
79315;DHT22;68777;44.804;0.552;2023-04-05T14:37:12;19.25;22.26
79315;DHT22;68777;44.804;0.552;2023-04-05T14:39:37;19.29;23.52
79315;DHT22;68777;44.804;0.552;2023-04-05T14:42:03;19.57;23.66
79315;DHT22;68777;44.804;0.552;2023-04-05T14:44:28;19.76;23.16
79315;DHT22;68777;44.804;0.552;2023-04-05T14:46:54;19.45;21.09
79315;DHT22;68777;44.804;0.552;2023-04-05T14:49:19;19.42;20.71
79315;DHT22;68777;44.804;0.552;2023-04-05T14:51:46;19.24;20.22
79315;DHT22;68777;44.804;0.552;2023-04-05T14:54:11;18.94;19.40
79315;DHT22;68777;44.804;0.552;2023-04-05T14:56:36;19.44;22.16
79315;DHT22;68777;44.804;0.552;2023-04-05T14:59:02;19.70;23.21
79315;DHT22;68777;44.804;0.552;2023-04-05T15:01:27;19.41;23.55
79315;DHT22;68777;44.804;0.552;2023-04-05T15:03:53;19.78;25.62
79315;DHT22;68777;44.804;0.552;2023-04-05T15:06:19;19.92;22.24
79315;DHT22;68777;44.804;0.552;2023-04-05T15:08:44;19.58;22.22
79315;DHT22;68777;44.804;0.552;2023-04-05T15:11:10;19.41;21.84
79315;DHT22;68777;44.804;0.552;2023-04-05T15:13:35;19.34;21.20
79315;DHT22;68777;44.804;0.552;2023-04-05T15:16:01;19.24;21.80
79315;DHT22;68777;44.804;0.552;2023-04-05T15:18:26;19.51;22.17
79315;DHT22;68777;44.804;0.552;2023-04-05T15:20:51;19.34;23.09
79315;DHT22;68777;44.804;0.552;2023-04-05T15:23:17;19.62;24.61
79315;DHT22;68777;44.804;0.552;2023-04-05T15:25:43;19.62;24.25
79315;DHT22;68777;44.804;0.552;2023-04-05T15:28:08;19.54;24.54
79315;DHT22;68777;44.804;0.552;2023-04-05T15:30:34;19.68;22.90
79315;DHT22;68777;44.804;0.552;2023-04-05T15:33:00;19.75;23.86
79315;DHT22;68777;44.804;0.552;2023-04-05T15:35:25;19.86;22.65
79315;DHT22;68777;44.804;0.552;2023-04-05T15:37:51;19.89;22.18
79315;DHT22;68777;44.804;0.552;2023-04-05T15:40:16;19.82;23.79
79315;DHT22;68777;44.804;0.552;2023-04-05T15:42:42;19.92;24.66
79315;DHT22;68777;44.804;0.552;2023-04-05T15:45:08;19.93;25.17
79315;DHT22;68777;44.804;0.552;2023-04-05T15:47:33;19.89;25.86
79315;DHT22;68777;44.804;0.552;2023-04-05T15:49:59;19.97;25.35
79315;DHT22;68777;44.804;0.552;2023-04-05T15:52:24;19.85;24.18
79315;DHT22;68777;44.804;0.552;2023-04-05T15:54:50;19.83;25.78
79315;DHT22;68777;44.804;0.552;2023-04-05T15:57:15;19.48;24.12
79315;DHT22;68777;44.804;0.552;2023-04-05T15:59:40;19.52;25.65
79315;DHT22;68777;44.804;0.552;2023-04-05T16:02:06;19.69;25.80
79315;DHT22;68777;44.804;0.552;2023-04-05T16:04:31;19.65;23.90
79315;DHT22;68777;44.804;0.552;2023-04-05T16:06:57;19.08;24.37
79315;DHT22;68777;44.804;0.552;2023-04-05T16:09:22;18.94;25.53
79315;DHT22;68777;44.804;0.552;2023-04-05T16:11:48;18.81;25.39
79315;DHT22;68777;44.804;0.552;2023-04-05T16:14:14;18.88;26.15
79315;DHT22;68777;44.804;0.552;2023-04-05T16:16:40;19.04;26.26
79315;DHT22;68777;44.804;0.552;2023-04-05T16:19:05;19.08;26.21